Time;durP1;ratioP1;P1;durP2;ratioP2;P2;SDS_P1;SDS_P2;PMS_P1;PMS_P2;Temp;Humidity;BMP_temperature;BMP_pressure;BME280_temperature;BME280_humidity;BME280_pressure;Samples;Min_cycle;Max_cycle;Signal;HPM_P1;HPM_P2
2022/03/18 00:02:21;;;;;;;;;;;14.00;52.80;;;;;;5090082;28;19924;-68
2022/03/18 00:04:48;;;;;;;;;;;14.10;52.90;;;;;;5094222;28;19927;-68
2022/03/18 00:07:14;;;;;;;;;;;14.00;52.80;;;;;;5075911;28;20296;-69
2022/03/18 00:09:41;;;;;;;;;;;14.10;52.90;;;;;;5094398;28;19924;-69
2022/03/18 00:12:08;;;;;;;;;;;14.00;52.80;;;;;;5094210;28;20264;-68
2022/03/18 00:14:39;;;;;;;;;;;14.00;52.80;;;;;;5073453;28;19932;-68
2022/03/18 00:17:05;;;;;;;;;;;14.00;52.80;;;;;;5056280;28;19932;-69
2022/03/18 00:19:33;;;;;;;;;;;14.00;52.90;;;;;;5073751;28;19931;-68
2022/03/18 00:22:01;;;;;;;;;;;14.00;52.90;;;;;;5056304;28;20414;-68
2022/03/18 00:24:31;;;;;;;;;;;14.00;52.90;;;;;;5055835;28;19924;-69
2022/03/18 00:26:58;;;;;;;;;;;14.00;52.80;;;;;;5055878;28;19924;-69
2022/03/18 00:29:25;;;;;;;;;;;14.00;52.90;;;;;;5073789;28;19937;-68
2022/03/18 00:31:53;;;;;;;;;;;13.90;52.80;;;;;;5067860;28;20347;-70
2022/03/18 00:34:20;;;;;;;;;;;13.90;52.80;;;;;;5093547;28;19928;-68
2022/03/18 00:36:46;;;;;;;;;;;13.90;52.90;;;;;;5075753;28;19930;-69
2022/03/18 00:39:13;;;;;;;;;;;13.90;52.90;;;;;;5076012;28;20019;-69
2022/03/18 00:41:40;;;;;;;;;;;14.30;53.10;;;;;;5059453;28;20281;-70
2022/03/18 00:44:06;;;;;;;;;;;13.90;52.90;;;;;;5075533;28;19924;-68
2022/03/18 00:46:33;;;;;;;;;;;13.90;52.90;;;;;;5093002;28;19924;-68
2022/03/18 00:52:04;;;;;;;;;;;14.10;53.00;;;;;;5075600;28;19924;-69
2022/03/18 00:54:32;;;;;;;;;;;14.00;52.90;;;;;;5093360;28;19946;-68
2022/03/18 00:56:58;;;;;;;;;;;13.90;52.90;;;;;;5074995;28;19931;-69
2022/03/18 00:59:25;;;;;;;;;;;13.90;52.90;;;;;;5075395;28;19930;-69
2022/03/18 01:01:52;;;;;;;;;;;13.90;52.90;;;;;;5093154;28;19930;-69
2022/03/18 01:04:20;;;;;;;;;;;13.90;53.50;;;;;;5075010;28;20003;-69
2022/03/18 01:06:47;;;;;;;;;;;13.90;52.90;;;;;;5074948;28;19935;-69
2022/03/18 01:09:14;;;;;;;;;;;14.00;52.90;;;;;;5075406;28;20397;-68
2022/03/18 01:11:40;;;;;;;;;;;13.90;52.90;;;;;;5075295;28;20403;-68
2022/03/18 01:14:07;;;;;;;;;;;14.00;52.90;;;;;;5092737;28;20435;-70
2022/03/18 01:16:33;;;;;;;;;;;14.00;52.90;;;;;;5093040;28;20304;-69
2022/03/18 01:19:00;;;;;;;;;;;14.00;52.80;;;;;;5090270;28;19946;-68
2022/03/18 01:21:28;;;;;;;;;;;14.00;52.90;;;;;;5055125;28;19950;-68
2022/03/18 01:23:54;;;;;;;;;;;14.00;52.80;;;;;;5072694;28;19924;-69
2022/03/18 01:26:21;;;;;;;;;;;14.00;52.90;;;;;;5072531;28;19924;-68
2022/03/18 01:28:47;;;;;;;;;;;14.20;52.90;;;;;;5072654;28;19929;-69
2022/03/18 01:31:14;;;;;;;;;;;14.10;52.90;;;;;;5072796;28;19924;-69
2022/03/18 01:33:41;;;;;;;;;;;14.30;52.90;;;;;;5072065;28;19931;-68
2022/03/18 01:36:08;;;;;;;;;;;14.10;52.80;;;;;;5081476;28;20291;-68
2022/03/18 01:38:36;;;;;;;;;;;14.10;52.70;;;;;;5074996;28;20038;-68
2022/03/18 01:41:03;;;;;;;;;;;14.10;52.70;;;;;;5074827;28;20384;-68
2022/03/18 01:43:29;;;;;;;;;;;14.10;52.70;;;;;;5092245;28;19970;-68
2022/03/18 01:45:56;;;;;;;;;;;14.10;52.60;;;;;;5074825;28;20407;-69
2022/03/18 01:48:23;;;;;;;;;;;14.20;52.60;;;;;;5092407;28;20400;-68
2022/03/18 01:50:50;;;;;;;;;;;14.10;52.60;;;;;;5074766;28;19930;-68
2022/03/18 01:53:17;;;;;;;;;;;14.20;52.60;;;;;;5074392;28;19925;-69
2022/03/18 01:55:45;;;;;;;;;;;14.20;52.60;;;;;;5054444;28;19924;-68
2022/03/18 01:58:11;;;;;;;;;;;14.20;52.60;;;;;;5054630;28;19930;-68
2022/03/18 02:00:38;;;;;;;;;;;14.20;52.60;;;;;;5072550;28;19924;-69
2022/03/18 02:03:05;;;;;;;;;;;14.20;52.50;;;;;;5071875;28;19940;-70
2022/03/18 02:05:31;;;;;;;;;;;14.20;52.50;;;;;;5072222;28;20346;-70
2022/03/18 02:07:58;;;;;;;;;;;14.20;52.50;;;;;;5077066;28;20022;-70
2022/03/18 02:10:25;;;;;;;;;;;14.20;52.50;;;;;;5092373;28;20023;-70
2022/03/18 02:12:53;;;;;;;;;;;14.20;52.50;;;;;;5092134;28;19924;-70
2022/03/18 02:15:19;;;;;;;;;;;14.20;52.50;;;;;;5095791;28;19924;-70
2022/03/18 02:17:46;;;;;;;;;;;14.20;52.50;;;;;;5078476;28;19928;-70
2022/03/18 02:20:12;;;;;;;;;;;14.20;52.50;;;;;;5078542;28;19924;-71
2022/03/18 02:22:40;;;;;;;;;;;14.20;52.50;;;;;;5096076;28;19924;-70
2022/03/18 02:25:09;;;;;;;;;;;14.20;52.50;;;;;;5078607;28;19931;-70
2022/03/18 02:27:36;;;;;;;;;;;14.20;52.50;;;;;;5078222;28;19930;-70
2022/03/18 02:30:02;;;;;;;;;;;14.20;53.00;;;;;;5096144;28;20300;-70
2022/03/18 02:32:29;;;;;;;;;;;14.20;52.40;;;;;;5077885;28;19924;-70
2022/03/18 02:34:56;;;;;;;;;;;14.20;52.40;;;;;;5096046;28;19932;-70
2022/03/18 02:37:22;;;;;;;;;;;14.20;52.40;;;;;;5096341;28;19924;-70
2022/03/18 02:39:50;;;;;;;;;;;14.30;52.50;;;;;;5078130;28;19930;-70
2022/03/18 02:42:18;;;;;;;;;;;14.40;52.50;;;;;;5095549;28;19925;-70
2022/03/18 02:44:45;;;;;;;;;;;14.20;52.40;;;;;;5077949;28;19931;-70
2022/03/18 02:47:11;;;;;;;;;;;14.20;53.00;;;;;;5096131;28;19930;-70
2022/03/18 02:49:38;;;;;;;;;;;14.20;52.40;;;;;;5094849;28;19934;-70
2022/03/18 02:52:05;;;;;;;;;;;14.20;52.40;;;;;;5077721;28;20296;-70
2022/03/18 02:54:32;;;;;;;;;;;14.20;52.40;;;;;;5077586;28;19936;-70
2022/03/18 02:57:00;;;;;;;;;;;14.20;52.40;;;;;;5095951;28;20012;-70
2022/03/18 02:59:27;;;;;;;;;;;14.20;52.40;;;;;;5095564;28;19930;-70
2022/03/18 03:01:55;;;;;;;;;;;14.20;52.40;;;;;;5095540;28;19930;-69
2022/03/18 03:04:21;;;;;;;;;;;14.50;52.60;;;;;;5093683;28;20311;-70
2022/03/18 03:09:32;;;;;;;;;;;14.20;52.40;;;;;;5077415;28;19924;-70
2022/03/18 03:12:00;;;;;;;;;;;14.20;52.40;;;;;;5095781;28;19924;-70
2022/03/18 03:14:27;;;;;;;;;;;14.20;52.40;;;;;;5077229;28;20432;-70
2022/03/18 03:16:53;;;;;;;;;;;14.20;52.40;;;;;;5077291;28;19926;-70
2022/03/18 03:19:20;;;;;;;;;;;14.20;52.40;;;;;;5095394;28;19930;-70
2022/03/18 03:21:46;;;;;;;;;;;14.20;52.30;;;;;;5077202;28;19931;-70
2022/03/18 03:24:15;;;;;;;;;;;14.20;52.40;;;;;;5076950;28;19924;-70
2022/03/18 03:26:42;;;;;;;;;;;14.20;52.40;;;;;;5077327;28;19964;-70
2022/03/18 03:29:10;;;;;;;;;;;14.20;52.40;;;;;;5076668;28;19924;-68
2022/03/18 03:31:36;;;;;;;;;;;14.20;52.30;;;;;;5094678;28;19931;-68
2022/03/18 03:34:03;;;;;;;;;;;14.20;52.40;;;;;;5076164;28;19938;-68
2022/03/18 03:36:30;;;;;;;;;;;14.20;52.40;;;;;;5094137;28;20288;-68
2022/03/18 03:38:57;;;;;;;;;;;14.20;52.40;;;;;;5075979;28;19935;-68
2022/03/18 03:41:23;;;;;;;;;;;14.20;52.40;;;;;;5094345;28;19932;-68
2022/03/18 03:43:50;;;;;;;;;;;14.20;52.30;;;;;;5094253;28;19930;-69
2022/03/18 03:46:18;;;;;;;;;;;14.20;52.40;;;;;;5094272;28;20385;-67
2022/03/18 03:48:44;;;;;;;;;;;14.20;52.30;;;;;;5093996;28;19986;-69
2022/03/18 03:51:11;;;;;;;;;;;14.10;52.30;;;;;;5094190;28;19924;-68
2022/03/18 03:53:38;;;;;;;;;;;14.20;52.40;;;;;;5075460;28;19924;-69
2022/03/18 03:56:05;;;;;;;;;;;14.20;52.30;;;;;;5094343;28;19924;-69
2022/03/18 03:58:32;;;;;;;;;;;14.10;52.30;;;;;;5094133;28;19981;-68
2022/03/18 04:00:58;;;;;;;;;;;14.20;52.30;;;;;;5094002;28;19928;-69
2022/03/18 04:03:28;;;;;;;;;;;14.20;52.30;;;;;;5075867;28;19924;-69
2022/03/18 04:05:54;;;;;;;;;;;14.10;52.20;;;;;;5076086;28;19951;-69
2022/03/18 04:08:21;;;;;;;;;;;14.20;52.30;;;;;;5094013;28;19924;-68
2022/03/18 04:10:47;;;;;;;;;;;14.20;52.30;;;;;;5091225;28;19924;-67
2022/03/18 04:13:14;;;;;;;;;;;14.10;52.20;;;;;;5093681;28;19928;-68
2022/03/18 04:15:41;;;;;;;;;;;14.10;52.30;;;;;;5093734;28;19998;-69
2022/03/18 04:18:08;;;;;;;;;;;14.10;52.30;;;;;;5092053;28;19925;-68
2022/03/18 04:20:36;;;;;;;;;;;14.10;52.20;;;;;;5093617;28;19934;-68
2022/03/18 04:23:02;;;;;;;;;;;14.10;52.20;;;;;;5093663;28;19930;-68
2022/03/18 04:25:30;;;;;;;;;;;14.20;52.30;;;;;;5072871;28;19932;-69
2022/03/18 04:27:57;;;;;;;;;;;14.10;52.30;;;;;;5092807;28;19924;-69
2022/03/18 04:30:24;;;;;;;;;;;14.10;52.20;;;;;;5093683;28;19971;-68
2022/03/18 04:32:51;;;;;;;;;;;14.10;52.30;;;;;;5093323;28;19931;-69
2022/03/18 04:35:17;;;;;;;;;;;14.10;52.20;;;;;;5075557;28;19924;-68
2022/03/18 04:37:45;;;;;;;;;;;14.10;52.20;;;;;;5092530;28;19931;-67
2022/03/18 04:40:13;;;;;;;;;;;14.10;52.20;;;;;;5093408;28;19974;-69
2022/03/18 04:42:40;;;;;;;;;;;14.10;52.30;;;;;;5087708;28;20018;-69
2022/03/18 04:45:06;;;;;;;;;;;14.00;52.20;;;;;;5055879;28;20393;-68
2022/03/18 04:47:35;;;;;;;;;;;14.10;52.20;;;;;;5073142;28;20384;-68
2022/03/18 04:50:01;;;;;;;;;;;14.10;52.20;;;;;;5073445;28;20313;-68
2022/03/18 04:52:28;;;;;;;;;;;14.00;52.20;;;;;;5072993;28;19928;-68
2022/03/18 04:54:56;;;;;;;;;;;14.10;52.30;;;;;;5073346;28;19924;-68
2022/03/18 04:57:23;;;;;;;;;;;14.00;52.20;;;;;;5073520;28;19966;-68
2022/03/18 04:59:51;;;;;;;;;;;14.10;52.20;;;;;;5065774;28;19928;-68
2022/03/18 05:02:17;;;;;;;;;;;14.10;52.20;;;;;;5093066;28;20403;-68
2022/03/18 05:04:44;;;;;;;;;;;14.00;52.20;;;;;;5075229;28;19924;-68
2022/03/18 05:07:11;;;;;;;;;;;14.10;52.30;;;;;;5093229;28;20015;-69
2022/03/18 05:09:38;;;;;;;;;;;14.00;52.20;;;;;;5093095;28;20023;-68
2022/03/18 05:12:07;;;;;;;;;;;14.00;52.20;;;;;;5093066;28;19987;-67
2022/03/18 05:14:35;;;;;;;;;;;14.00;52.20;;;;;;5092770;28;19970;-68
2022/03/18 05:17:02;;;;;;;;;;;14.00;52.10;;;;;;5091261;28;19979;-68
2022/03/18 05:19:28;;;;;;;;;;;14.00;52.10;;;;;;5075133;28;19935;-68
2022/03/18 05:21:55;;;;;;;;;;;14.00;52.10;;;;;;5093074;28;19924;-69
2022/03/18 05:24:22;;;;;;;;;;;14.00;52.10;;;;;;5074957;28;20384;-68
2022/03/18 05:26:48;;;;;;;;;;;14.00;52.10;;;;;;5093018;28;20381;-68
2022/03/18 05:29:16;;;;;;;;;;;14.40;52.30;;;;;;5074725;28;20303;-68
2022/03/18 05:31:43;;;;;;;;;;;14.10;52.20;;;;;;5091142;28;20374;-68
2022/03/18 05:34:09;;;;;;;;;;;14.00;52.10;;;;;;5092932;28;20496;-68
2022/03/18 05:36:36;;;;;;;;;;;14.00;52.10;;;;;;5092787;28;20296;-68
2022/03/18 05:39:02;;;;;;;;;;;14.00;52.10;;;;;;5092729;28;20303;-68
2022/03/18 05:41:29;;;;;;;;;;;14.00;52.10;;;;;;5074714;28;19974;-68
2022/03/18 05:43:55;;;;;;;;;;;14.00;52.10;;;;;;5092326;28;20399;-69
2022/03/18 05:46:23;;;;;;;;;;;14.00;52.10;;;;;;5092812;28;20406;-68
2022/03/18 05:48:50;;;;;;;;;;;14.00;52.10;;;;;;5074514;28;19924;-68
2022/03/18 05:51:17;;;;;;;;;;;14.00;52.00;;;;;;5074548;28;20006;-68
2022/03/18 05:53:46;;;;;;;;;;;14.00;52.00;;;;;;5092242;28;20303;-68
2022/03/18 05:58:57;;;;;;;;;;;14.00;52.00;;;;;;5092431;28;20384;-68
2022/03/18 06:01:25;;;;;;;;;;;14.00;52.00;;;;;;5092568;28;20009;-69
2022/03/18 06:03:52;;;;;;;;;;;14.00;52.10;;;;;;5072552;28;19925;-68
2022/03/18 06:06:18;;;;;;;;;;;14.00;52.00;;;;;;5091722;28;19924;-68
2022/03/18 06:14:14;;;;;;;;;;;14.00;52.00;;;;;;5074111;28;19920;-68
2022/03/18 06:16:42;;;;;;;;;;;14.00;52.00;;;;;;5074318;28;19928;-68
2022/03/18 06:19:08;;;;;;;;;;;14.00;52.00;;;;;;5092526;28;19924;-69
2022/03/18 06:21:35;;;;;;;;;;;14.00;52.00;;;;;;5090881;28;19924;-68
2022/03/18 06:24:02;;;;;;;;;;;14.00;52.00;;;;;;5092256;28;19930;-68
2022/03/18 06:26:30;;;;;;;;;;;14.00;52.00;;;;;;5092127;28;19935;-68
2022/03/18 06:28:57;;;;;;;;;;;14.00;52.00;;;;;;5092402;28;19932;-69
2022/03/18 06:31:23;;;;;;;;;;;14.00;52.00;;;;;;5092451;28;19931;-68
2022/03/18 06:33:51;;;;;;;;;;;14.00;51.90;;;;;;5091596;28;19934;-69
2022/03/18 06:36:18;;;;;;;;;;;14.00;51.90;;;;;;5073288;28;19924;-66
2022/03/18 06:38:45;;;;;;;;;;;14.00;51.90;;;;;;5091648;28;19924;-66
2022/03/18 06:41:11;;;;;;;;;;;14.00;51.90;;;;;;5071838;28;19935;-66
2022/03/18 06:43:38;;;;;;;;;;;14.00;51.90;;;;;;5053401;28;19924;-67
2022/03/18 06:46:04;;;;;;;;;;;14.00;51.90;;;;;;5071832;28;19924;-66
2022/03/18 06:48:31;;;;;;;;;;;14.00;51.90;;;;;;5083426;28;19935;-66
2022/03/18 06:51:00;;;;;;;;;;;14.10;52.00;;;;;;5074073;28;19930;-68
2022/03/18 06:53:27;;;;;;;;;;;14.10;51.90;;;;;;5091949;28;19930;-66
2022/03/18 06:55:53;;;;;;;;;;;14.20;51.80;;;;;;5073816;28;20019;-66
2022/03/18 06:58:20;;;;;;;;;;;14.30;51.70;;;;;;5074078;28;19924;-68
2022/03/18 07:00:46;;;;;;;;;;;14.30;51.60;;;;;;5076631;28;19940;-70
2022/03/18 07:03:13;;;;;;;;;;;14.30;51.50;;;;;;5077024;28;19934;-70
2022/03/18 07:05:40;;;;;;;;;;;14.30;51.50;;;;;;5095412;28;20526;-69
2022/03/18 07:08:07;;;;;;;;;;;14.30;51.50;;;;;;5095627;28;20270;-69
2022/03/18 07:10:36;;;;;;;;;;;14.30;51.50;;;;;;5094704;28;21389;-70
2022/03/18 07:13:02;;;;;;;;;;;14.30;51.50;;;;;;5076963;28;19924;-70
2022/03/18 07:15:29;;;;;;;;;;;14.30;51.50;;;;;;5077301;28;19924;-68
2022/03/18 07:17:55;;;;;;;;;;;14.20;51.50;;;;;;5077356;28;19931;-66
2022/03/18 07:20:22;;;;;;;;;;;14.20;51.50;;;;;;5077215;28;19924;-66
2022/03/18 07:22:59;;;;;;;;;;;14.20;51.60;;;;;;5077083;28;19930;-66
2022/03/18 07:25:27;;;;;;;;;;;14.20;51.50;;;;;;5076993;28;19932;-66
2022/03/18 07:27:53;;;;;;;;;;;14.20;51.60;;;;;;5095023;28;19928;-66
2022/03/18 07:30:20;;;;;;;;;;;14.20;51.60;;;;;;5076756;28;19931;-66
2022/03/18 07:32:46;;;;;;;;;;;14.20;51.60;;;;;;5076925;28;19924;-66
2022/03/18 07:35:14;;;;;;;;;;;14.20;51.60;;;;;;5077128;28;19931;-67
2022/03/18 07:37:40;;;;;;;;;;;14.30;51.80;;;;;;5056683;28;19924;-66
2022/03/18 07:40:09;;;;;;;;;;;14.30;51.60;;;;;;5056986;28;20377;-67
2022/03/18 07:42:43;;;;;;;;;;;14.30;51.60;;;;;;5074608;28;19925;-67
2022/03/18 07:45:10;;;;;;;;;;;14.30;51.60;;;;;;5074805;28;19931;-69
2022/03/18 07:47:37;;;;;;;;;;;14.30;51.50;;;;;;5074519;28;20291;-69
2022/03/18 07:50:03;;;;;;;;;;;14.40;51.60;;;;;;5075330;28;19979;-67
2022/03/18 07:52:30;;;;;;;;;;;14.30;51.50;;;;;;5056625;28;19924;-68
2022/03/18 07:54:57;;;;;;;;;;;14.40;51.50;;;;;;5074868;28;19925;-66
2022/03/18 07:57:24;;;;;;;;;;;14.40;51.60;;;;;;5056713;28;19925;-69
2022/03/18 07:59:51;;;;;;;;;;;14.40;51.50;;;;;;5056706;28;20403;-67
2022/03/18 08:02:18;;;;;;;;;;;14.50;51.50;;;;;;5074148;28;20296;-66
2022/03/18 08:04:45;;;;;;;;;;;14.50;51.40;;;;;;5056179;28;20292;-66
2022/03/18 08:07:12;;;;;;;;;;;14.50;51.40;;;;;;5070164;28;19928;-69
2022/03/18 08:09:39;;;;;;;;;;;14.60;51.40;;;;;;5094335;28;19931;-66
2022/03/18 08:12:06;;;;;;;;;;;14.60;51.30;;;;;;5075535;28;20011;-67
2022/03/18 08:14:32;;;;;;;;;;;14.60;51.30;;;;;;5093867;28;20320;-67
2022/03/18 08:17:00;;;;;;;;;;;14.70;51.30;;;;;;5094187;28;19924;-67
2022/03/18 08:19:27;;;;;;;;;;;14.70;51.30;;;;;;5094110;28;19931;-66
2022/03/18 08:21:53;;;;;;;;;;;14.70;51.30;;;;;;5076241;28;19924;-69
2022/03/18 08:24:20;;;;;;;;;;;14.70;51.20;;;;;;5093829;28;19928;-66
2022/03/18 08:26:47;;;;;;;;;;;14.70;51.20;;;;;;5076209;28;20319;-66
2022/03/18 08:29:13;;;;;;;;;;;14.70;51.10;;;;;;5093818;28;20296;-66
2022/03/18 08:31:40;;;;;;;;;;;14.70;51.20;;;;;;5094152;28;20278;-66
2022/03/18 08:34:08;;;;;;;;;;;14.70;51.20;;;;;;5093572;28;20300;-69
2022/03/18 08:36:34;;;;;;;;;;;14.70;51.20;;;;;;5094010;28;19928;-66
2022/03/18 08:39:01;;;;;;;;;;;14.70;51.20;;;;;;5075387;28;19924;-68
2022/03/18 08:41:27;;;;;;;;;;;14.70;51.10;;;;;;5094052;28;20288;-68
2022/03/18 08:43:54;;;;;;;;;;;14.70;51.10;;;;;;5093480;28;20305;-68
2022/03/18 08:46:20;;;;;;;;;;;14.70;51.10;;;;;;5093306;28;20157;-70
2022/03/18 08:48:48;;;;;;;;;;;14.70;51.20;;;;;;5075529;28;19946;-70
2022/03/18 08:51:16;;;;;;;;;;;14.70;51.20;;;;;;5075733;28;20484;-71
2022/03/18 08:53:43;;;;;;;;;;;14.70;51.20;;;;;;5075124;28;19947;-70
2022/03/18 08:56:09;;;;;;;;;;;14.70;51.10;;;;;;5091533;28;19931;-69
2022/03/18 08:58:36;;;;;;;;;;;14.70;51.10;;;;;;5092792;28;20403;-70
2022/03/18 09:01:03;;;;;;;;;;;14.70;51.20;;;;;;5074106;28;19932;-70
2022/03/18 09:03:29;;;;;;;;;;;14.70;51.20;;;;;;5092727;28;19924;-70
2022/03/18 09:05:56;;;;;;;;;;;14.70;51.20;;;;;;5093210;28;19930;-70
2022/03/18 09:08:25;;;;;;;;;;;14.80;51.30;;;;;;5093136;28;19932;-70
2022/03/18 09:10:51;;;;;;;;;;;14.80;51.20;;;;;;5092991;28;19924;-70
2022/03/18 09:13:18;;;;;;;;;;;14.80;51.20;;;;;;5091422;28;19924;-70
2022/03/18 09:15:44;;;;;;;;;;;14.80;51.10;;;;;;5093062;28;19924;-70
2022/03/18 09:18:11;;;;;;;;;;;14.90;51.20;;;;;;5075182;28;19947;-70
2022/03/18 09:20:38;;;;;;;;;;;14.90;51.20;;;;;;5074998;28;19960;-69
2022/03/18 09:23:08;;;;;;;;;;;14.90;51.20;;;;;;5092583;28;20015;-71
2022/03/18 09:25:37;;;;;;;;;;;14.90;51.10;;;;;;5092835;28;19931;-70
2022/03/18 09:28:04;;;;;;;;;;;14.90;51.10;;;;;;5092769;28;19935;-71
2022/03/18 09:30:31;;;;;;;;;;;15.00;51.20;;;;;;5092650;28;19924;-71
2022/03/18 09:32:57;;;;;;;;;;;15.00;51.10;;;;;;5073843;28;19924;-71
2022/03/18 09:35:25;;;;;;;;;;;15.10;51.10;;;;;;5072122;28;19950;-71
2022/03/18 09:37:51;;;;;;;;;;;15.10;51.10;;;;;;5079355;28;19929;-71
2022/03/18 09:40:18;;;;;;;;;;;15.10;51.00;;;;;;5092748;28;19933;-70
2022/03/18 09:42:59;;;;;;;;;;;15.20;51.00;;;;;;5092569;28;19928;-71
2022/03/18 09:45:25;;;;;;;;;;;15.20;51.00;;;;;;5074669;28;19930;-70
2022/03/18 09:47:52;;;;;;;;;;;15.20;50.90;;;;;;5074285;28;19931;-70
2022/03/18 09:50:19;;;;;;;;;;;15.30;51.60;;;;;;5074366;28;19924;-68
2022/03/18 09:52:45;;;;;;;;;;;15.30;50.90;;;;;;5092541;28;19931;-68
2022/03/18 09:55:12;;;;;;;;;;;15.30;50.90;;;;;;5092188;28;19924;-68
2022/03/18 09:57:38;;;;;;;;;;;15.30;50.80;;;;;;5091561;28;20380;-70
2022/03/18 10:00:07;;;;;;;;;;;15.40;50.80;;;;;;5091006;28;20307;-70
2022/03/18 10:02:34;;;;;;;;;;;15.40;50.80;;;;;;5089445;28;19935;-70
2022/03/18 10:05:01;;;;;;;;;;;15.40;50.70;;;;;;5073582;28;19931;-70
2022/03/18 10:07:28;;;;;;;;;;;15.40;50.70;;;;;;5090796;28;20292;-70
2022/03/18 10:10:01;;;;;;;;;;;15.50;50.70;;;;;;5074092;28;20307;-70
2022/03/18 10:12:28;;;;;;;;;;;15.50;50.70;;;;;;5073890;28;19935;-68
2022/03/18 10:15:02;;;;;;;;;;;15.60;50.70;;;;;;5074541;28;19931;-68
2022/03/18 10:17:32;;;;;;;;;;;15.60;50.70;;;;;;5074643;28;20015;-70
2022/03/18 10:19:59;;;;;;;;;;;15.60;50.60;;;;;;5091322;28;19924;-68
2022/03/18 10:22:28;;;;;;;;;;;15.70;50.60;;;;;;5074136;28;19925;-70
2022/03/18 10:24:55;;;;;;;;;;;15.70;50.50;;;;;;5073570;28;19971;-67
2022/03/18 10:27:21;;;;;;;;;;;15.70;50.50;;;;;;5091789;28;19931;-69
2022/03/18 10:29:48;;;;;;;;;;;15.80;50.50;;;;;;5073651;28;19947;-71
2022/03/18 10:32:15;;;;;;;;;;;15.80;50.40;;;;;;5073646;28;19966;-71
2022/03/18 10:37:39;;;;;;;;;;;15.80;50.50;;;;;;5093079;28;19927;-71
2022/03/18 10:40:06;;;;;;;;;;;15.80;50.40;;;;;;5093046;28;19931;-69
2022/03/18 10:42:32;;;;;;;;;;;15.80;50.40;;;;;;5095393;28;20287;-71
2022/03/18 10:44:59;;;;;;;;;;;15.90;50.50;;;;;;5095503;28;20311;-71
2022/03/18 10:47:27;;;;;;;;;;;15.90;50.40;;;;;;5092760;28;20452;-71
2022/03/18 10:49:55;;;;;;;;;;;15.90;50.30;;;;;;5095410;28;19924;-71
2022/03/18 10:52:23;;;;;;;;;;;16.00;50.40;;;;;;5076821;28;19935;-70
2022/03/18 10:54:50;;;;;;;;;;;16.00;50.30;;;;;;5077214;28;19930;-70
2022/03/18 10:57:17;;;;;;;;;;;16.10;50.30;;;;;;5095990;28;19924;-70
2022/03/18 10:59:44;;;;;;;;;;;16.10;50.30;;;;;;5095487;28;19928;-70
2022/03/18 11:02:10;;;;;;;;;;;16.10;50.30;;;;;;5095397;28;19931;-68
2022/03/18 11:04:37;;;;;;;;;;;16.20;50.20;;;;;;5094617;28;20372;-70
2022/03/18 11:12:33;;;;;;;;;;;16.30;50.10;;;;;;5094648;28;20320;-70
2022/03/18 11:14:59;;;;;;;;;;;16.30;50.10;;;;;;5076663;28;19924;-70
2022/03/18 11:17:26;;;;;;;;;;;16.40;50.10;;;;;;5095150;28;19924;-71
2022/03/18 11:19:53;;;;;;;;;;;16.40;50.10;;;;;;5076929;28;19924;-70
2022/03/18 11:22:22;;;;;;;;;;;16.40;50.00;;;;;;5076505;28;19928;-71
2022/03/18 11:24:48;;;;;;;;;;;16.50;50.10;;;;;;5076141;28;20379;-71
2022/03/18 11:27:16;;;;;;;;;;;16.50;50.10;;;;;;5076564;28;19928;-71
2022/03/18 11:29:43;;;;;;;;;;;16.50;50.00;;;;;;5093390;28;20006;-72
2022/03/18 11:32:20;;;;;;;;;;;16.50;50.00;;;;;;5094118;28;19938;-68
2022/03/18 11:34:47;;;;;;;;;;;16.60;50.10;;;;;;5076905;28;20303;-70
2022/03/18 11:37:14;;;;;;;;;;;16.50;50.00;;;;;;5076598;28;19969;-70
2022/03/18 11:39:42;;;;;;;;;;;16.60;50.00;;;;;;5094855;28;20401;-71
2022/03/18 11:42:09;;;;;;;;;;;16.60;50.00;;;;;;5076568;28;19928;-66
2022/03/18 11:44:40;;;;;;;;;;;16.60;50.00;;;;;;5076650;28;19967;-70
2022/03/18 11:47:31;;;;;;;;;;;16.70;50.00;;;;;;5076868;28;19924;-70
2022/03/18 11:49:57;;;;;;;;;;;16.70;50.00;;;;;;5076502;28;19924;-69
2022/03/18 11:52:24;;;;;;;;;;;16.70;50.10;;;;;;5073027;28;19931;-69
2022/03/18 11:54:52;;;;;;;;;;;16.70;50.10;;;;;;5074392;28;19930;-70
2022/03/18 11:57:27;;;;;;;;;;;16.70;50.30;;;;;;5094211;28;19925;-71
2022/03/18 11:59:55;;;;;;;;;;;16.80;50.20;;;;;;5076858;28;20019;-69
2022/03/18 12:02:25;;;;;;;;;;;16.80;50.20;;;;;;5094115;28;20284;-70
2022/03/18 12:04:54;;;;;;;;;;;16.80;50.20;;;;;;5093968;28;19924;-70
2022/03/18 12:07:24;;;;;;;;;;;16.80;50.10;;;;;;5076440;28;19975;-69
2022/03/18 12:09:59;;;;;;;;;;;16.80;50.00;;;;;;5076135;28;20008;-70
2022/03/18 12:12:26;;;;;;;;;;;16.90;50.70;;;;;;5075753;28;19934;-69
2022/03/18 12:14:53;;;;;;;;;;;16.80;50.00;;;;;;5093776;28;19999;-69
2022/03/18 12:17:21;;;;;;;;;;;16.80;50.00;;;;;;5092707;28;19932;-69
2022/03/18 12:19:52;;;;;;;;;;;16.80;50.00;;;;;;5076326;28;19995;-67
2022/03/18 12:22:18;;;;;;;;;;;16.80;50.80;;;;;;5076146;28;19924;-69
2022/03/18 12:24:45;;;;;;;;;;;16.90;50.00;;;;;;5076053;28;19924;-66
2022/03/18 12:27:13;;;;;;;;;;;16.80;49.90;;;;;;5093908;28;20014;-69
2022/03/18 12:29:40;;;;;;;;;;;16.80;50.00;;;;;;5075807;28;19960;-67
2022/03/18 12:32:08;;;;;;;;;;;16.80;49.90;;;;;;5075892;28;19924;-68
2022/03/18 12:34:35;;;;;;;;;;;16.80;49.90;;;;;;5093955;28;19924;-67
2022/03/18 12:37:03;;;;;;;;;;;16.80;50.00;;;;;;5075511;28;19924;-67
2022/03/18 12:39:30;;;;;;;;;;;16.80;49.90;;;;;;5075413;28;19924;-68
2022/03/18 12:42:05;;;;;;;;;;;16.80;49.90;;;;;;5091810;28;19967;-68
2022/03/18 12:44:33;;;;;;;;;;;16.80;50.20;;;;;;5075490;28;19930;-68
2022/03/18 12:46:59;;;;;;;;;;;16.80;50.30;;;;;;5075436;28;20338;-69
2022/03/18 12:49:30;;;;;;;;;;;16.90;50.50;;;;;;5075251;28;19928;-70
2022/03/18 12:51:57;;;;;;;;;;;16.90;50.50;;;;;;5072380;28;19964;-70
2022/03/18 12:54:24;;;;;;;;;;;16.90;50.70;;;;;;5092495;28;19928;-69
2022/03/18 12:56:50;;;;;;;;;;;16.90;50.70;;;;;;5074740;28;20292;-70
2022/03/18 12:59:17;;;;;;;;;;;16.90;50.80;;;;;;5090270;28;20303;-69
2022/03/18 13:01:52;;;;;;;;;;;16.90;50.80;;;;;;5042301;28;20384;-69
2022/03/18 13:04:20;;;;;;;;;;;16.90;50.80;;;;;;5092933;28;20380;-72
2022/03/18 13:06:47;;;;;;;;;;;16.90;50.80;;;;;;5093187;28;19931;-72
2022/03/18 13:09:15;;;;;;;;;;;16.90;50.70;;;;;;5074910;28;19931;-72
2022/03/18 13:11:43;;;;;;;;;;;16.90;50.70;;;;;;5093128;28;20230;-70
2022/03/18 13:14:10;;;;;;;;;;;16.80;50.60;;;;;;5091654;28;19963;-68
2022/03/18 13:16:37;;;;;;;;;;;16.80;50.70;;;;;;5092968;28;19924;-68
2022/03/18 13:19:06;;;;;;;;;;;16.80;50.70;;;;;;5093291;28;19928;-67
2022/03/18 13:21:38;;;;;;;;;;;16.70;50.70;;;;;;5092868;28;20399;-68
2022/03/18 13:24:05;;;;;;;;;;;16.70;50.80;;;;;;5074796;28;19930;-68
2022/03/18 13:26:32;;;;;;;;;;;16.70;50.80;;;;;;5074985;28;20407;-66
2022/03/18 13:28:58;;;;;;;;;;;16.70;50.80;;;;;;5073322;28;20357;-68
2022/03/18 13:34:10;;;;;;;;;;;16.70;50.70;;;;;;5074356;28;20338;-67
2022/03/18 13:36:38;;;;;;;;;;;16.70;50.80;;;;;;5071011;28;19930;-67
2022/03/18 13:39:05;;;;;;;;;;;16.70;50.80;;;;;;5074477;28;20399;-67
2022/03/18 13:41:45;;;;;;;;;;;16.60;50.70;;;;;;5092175;28;20270;-67
2022/03/18 13:44:11;;;;;;;;;;;16.60;50.80;;;;;;5072105;28;19924;-67
2022/03/18 13:46:38;;;;;;;;;;;16.60;50.80;;;;;;5091966;28;20380;-67
2022/03/18 13:49:13;;;;;;;;;;;16.60;50.90;;;;;;5074329;28;20393;-71
2022/03/18 13:51:40;;;;;;;;;;;16.50;50.80;;;;;;5092166;28;19924;-67
2022/03/18 13:54:08;;;;;;;;;;;16.50;50.90;;;;;;5071218;28;20390;-70
2022/03/18 13:56:34;;;;;;;;;;;16.50;50.90;;;;;;5092317;28;19924;-66
2022/03/18 13:59:08;;;;;;;;;;;16.50;51.00;;;;;;5091500;28;19924;-69
2022/03/18 14:01:35;;;;;;;;;;;16.50;51.00;;;;;;5072730;28;19931;-70
2022/03/18 14:04:02;;;;;;;;;;;16.50;51.60;;;;;;5072746;28;20360;-67
2022/03/18 14:06:30;;;;;;;;;;;16.40;51.00;;;;;;5074617;28;20384;-67
2022/03/18 14:09:03;;;;;;;;;;;16.50;51.50;;;;;;5092666;28;19950;-67
2022/03/18 14:14:18;;;;;;;;;;;16.50;51.70;;;;;;5077982;28;20006;-67
2022/03/18 14:16:59;;;;;;;;;;;16.50;51.70;;;;;;5078122;28;19931;-67
2022/03/18 14:19:41;;;;;;;;;;;16.50;51.60;;;;;;5077971;28;19934;-68
2022/03/18 14:22:09;;;;;;;;;;;16.50;51.60;;;;;;5078557;28;19924;-68
2022/03/18 14:24:36;;;;;;;;;;;16.50;51.50;;;;;;5078184;28;20385;-67
2022/03/18 14:27:03;;;;;;;;;;;16.50;51.60;;;;;;5078275;28;19925;-67
2022/03/18 14:29:31;;;;;;;;;;;16.50;51.60;;;;;;5078065;28;20015;-70
2022/03/18 14:31:58;;;;;;;;;;;16.50;51.60;;;;;;5096193;28;20012;-68
2022/03/18 14:34:24;;;;;;;;;;;16.50;51.70;;;;;;5096265;28;19924;-67
2022/03/18 14:36:51;;;;;;;;;;;16.50;51.70;;;;;;5096192;28;19930;-67
2022/03/18 14:39:18;;;;;;;;;;;16.50;51.60;;;;;;5095811;28;19931;-67
2022/03/18 14:41:45;;;;;;;;;;;16.50;51.60;;;;;;5095985;28;20393;-66
2022/03/18 14:44:12;;;;;;;;;;;16.50;51.50;;;;;;5077380;28;20391;-66
2022/03/18 14:46:38;;;;;;;;;;;16.50;51.50;;;;;;5077699;28;19925;-68